WSAP/QPG METAR and TAF weather

Enter ICAO airport designator
Station Type Date Time Source
WSAP METAR 2023/02/06 00:00 UTC NOAA

WSAP 060000Z 29003KT 9999 FEW016 BKN300 25/23 Q1010


Station Type Date Time Source
WSAP Decoded METAR 2023/02/06 00:00 UTC NOAA

Singapore / Paya Lebar, Singapore (WSAP) 01-22N 103-55E 32M
Feb 05, 2023 - 07:00 PM EST / 2023.02.06 0000 UTC
Wind: from the WNW (290 degrees) at 3 MPH (3 KT):0
Visibility: greater than 7 mile(s):0
Sky conditions: mostly cloudy
Temperature: 77 F (25 C)
Dew Point: 73 F (23 C)
Relative Humidity: 88%
Pressure (altimeter): 29.83 in. Hg (1010 hPa)
ob: WSAP 060000Z 29003KT 9999 FEW016 BKN300 25/23 Q1010
cycle: 0

Station Type Date Time Source
WSAP TAF 2023/02/05 18:05 UTC NOAA

TAF WSAP 051700Z 0518/0700 35008KT 9999 FEW015 BKN030
TEMPO 0607/0610 3500 TSRA FEW012CB BKN015

Example: see airport list